Flight Track Log - Related Links

Times and Time Zones

All times are in EDT time to prevent confusion due to time zone crossing. See the EGF4211 flight status page for this flight to view local times or setup timezone preferences in your user account.

Time Position Orientation Groundspeed Altitude Reporting Facility
EDT Latitude Longitude Course Direction KTS MPH feet Rate Location/Type
Wed 04:36:33 PM 41.9667 -87.8333 346° North 202 232 3,100  Level Chicago TRACON
Wed 04:37:33 PM 41.9667 -87.7500 90° East 233 268 6,300 2,524 Climbing Chicago TRACON
Wed 04:38:00 PM 42.2694 -87.9965 350° North  Level FlightAware Approximate
Wed 04:38:39 PM 42.0500 -87.7833 343° North 286 329 8,400  Level Chicago TRACON
Wed 04:39:00 PM 42.3710 -88.0271 340° North  Level FlightAware Approximate
Wed 04:39:40 PM 42.1333 -87.7833 360° North 323 372 10,600  Level Chicago TRACON
Wed 04:40:00 PM 42.4716 -88.0610 352° North  Level FlightAware Approximate
Wed 04:40:18 PM 42.1839 -87.7778 North 326 375 11,900  Level Chicago Center
Wed 04:41:00 PM 42.5700 -88.1010 346° North  Level FlightAware Approximate
Wed 04:41:20 PM 42.2758 -87.7808 359° North 331 381 14,200  Level Chicago Center
Wed 04:42:22 PM 42.3814 -87.7831 359° North 354 407 15,700 1,403 Climbing Chicago Center
Wed 04:43:24 PM 42.4889 -87.7858 359° North 381 438 17,100 1,306 Climbing Chicago Center
Wed 04:44:26 PM 42.5867 -87.8444 336° Northwest 389 448 18,400 1,403 Climbing Chicago Center
Wed 04:45:28 PM 42.6958 -87.9406 327° Northwest 399 459 20,000 1,452 Climbing Chicago Center
Wed 04:46:30 PM 42.7925 -88.0200 329° Northwest 404 465 21,400 1,355 Climbing Chicago Center
Wed 04:47:32 PM 42.8922 -88.1000 330° Northwest 413 475 22,800 1,355 Climbing Chicago Center
Wed 04:48:34 PM 42.9925 -88.1836 329° Northwest 419 482 24,200 1,392 Climbing Chicago Center
Wed 04:49:37 PM 43.0931 -88.2661 329° Northwest 421 484 25,700 1,536 Climbing Chicago Center
Wed 04:50:39 PM 43.1639 -88.3872 309° West 411 473 27,400 1,790 Climbing Chicago Center
Wed 04:51:41 PM 43.2286 -88.5419 300° West 397 457 29,400 1,790 Climbing Chicago Center
Wed 04:52:43 PM 43.2850 -88.6753 300° West 396 456 31,100 1,645 Climbing Chicago Center
Wed 04:53:45 PM 43.3417 -88.8069 301° West 397 457 32,800 1,597 Climbing Chicago Center
Wed 04:54:47 PM 43.3983 -88.9386 301° West 397 457 34,400 1,403 Climbing Chicago Center
Wed 04:55:49 PM 43.4531 -89.0683 300° West 392 451 35,700 774 Climbing Chicago Center
Wed 04:56:51 PM 43.5089 -89.2019 300° West 397 457 36,000 145 Climbing Chicago Center
Wed 04:57:53 PM 43.5689 -89.3444 300° West 425 489 36,000  Level Chicago Center
Wed 04:58:50 PM 43.6306 -89.4883 301° West 431 496 36,000  Level Minneapolis Center
Wed 04:59:52 PM 43.6903 -89.6339 300° West 434 499 36,000  Level Minneapolis Center
Wed 05:00:54 PM 43.7611 -89.8053 300° West 437 503 36,000  Level Minneapolis Center
Wed 05:01:56 PM 43.8211 -89.9522 300° West 438 504 36,000  Level Minneapolis Center
Wed 05:02:58 PM 43.8822 -90.1008 300° West 443 510 36,000  Level Minneapolis Center
Wed 05:04:00 PM 43.9425 -90.2483 300° West 440 506 36,000  Level Minneapolis Center
Wed 05:05:02 PM 44.0025 -90.3964 299° West 441 507 36,000  Level Minneapolis Center
Wed 05:06:04 PM 44.0694 -90.5619 299° West 438 504 36,000  Level Minneapolis Center
Wed 05:07:06 PM 44.1283 -90.7067 300° West 436 502 36,000  Level Minneapolis Center
Wed 05:08:08 PM 44.1861 -90.8519 299° West 434 499 36,000  Level Minneapolis Center
Wed 05:09:10 PM 44.2433 -90.9964 299° West 433 498 36,000  Level Minneapolis Center
Wed 05:10:13 PM 44.3014 -91.1425 299° West 434 499 36,000  Level Minneapolis Center
Wed 05:11:15 PM 44.3653 -91.3036 299° West 434 499 36,000  Level Minneapolis Center
Wed 05:12:17 PM 44.4222 -91.4511 298° West 434 499 36,000  Level Minneapolis Center
Wed 05:13:19 PM 44.4903 -91.6261 299° West 431 496 36,000  Level Minneapolis Center
Wed 05:14:21 PM 44.5469 -91.7764 298° West 436 502 36,000  Level Minneapolis Center
Wed 05:15:23 PM 44.6031 -91.9217 299° West 430 495 36,000  Level Minneapolis Center
Wed 05:16:25 PM 44.6608 -92.0692 299° West 431 496 36,000  Level Minneapolis Center
Wed 05:17:27 PM 44.7172 -92.2164 298° West 431 496 36,000  Level Minneapolis Center
Wed 05:18:29 PM 44.7842 -92.3931 298° West 430 495 36,000  Level Minneapolis Center
Wed 05:19:31 PM 44.8392 -92.5419 298° West 431 496 36,000  Level Minneapolis Center
Wed 05:20:33 PM 44.8936 -92.6900 297° West 430 495 36,000  Level Minneapolis Center
Wed 05:21:35 PM 44.9492 -92.8358 298° West 427 491 36,000  Level Minneapolis Center
Wed 05:22:37 PM 45.0033 -92.9814 298° West 426 490 36,000  Level Minneapolis Center
Wed 05:23:39 PM 45.0678 -93.1578 297° West 427 491 36,000  Level Minneapolis Center
Wed 05:24:41 PM 45.1208 -93.3036 297° West 423 487 36,000  Level Minneapolis Center
Wed 05:25:43 PM 45.1831 -93.4461 302° West 428 493 36,000  Level Minneapolis Center
Wed 05:26:45 PM 45.2586 -93.5797 309° West 438 504 36,000  Level Minneapolis Center
Wed 05:27:47 PM 45.3314 -93.7150 307° West 436 502 36,000  Level Minneapolis Center
Wed 05:28:49 PM 45.4197 -93.8758 308° West 432 497 36,000  Level Minneapolis Center
Wed 05:29:51 PM 45.4911 -94.0100 307° West 428 493 36,000  Level Minneapolis Center
Wed 05:30:53 PM 45.5642 -94.1481 307° West 435 501 36,000  Level Minneapolis Center
Wed 05:31:55 PM 45.6358 -94.2817 308° West 429 494 36,000  Level Minneapolis Center
Wed 05:32:57 PM 45.7078 -94.4192 307° West 431 496 36,000  Level Minneapolis Center
Wed 05:33:59 PM 45.7944 -94.5822 307° West 432 497 36,000  Level Minneapolis Center
Wed 05:35:01 PM 45.8658 -94.7206 307° West 433 498 36,000  Level Minneapolis Center
Wed 05:36:04 PM 45.9378 -94.8581 307° West 432 497 36,000  Level Minneapolis Center
Wed 05:37:05 PM 46.0089 -94.9953 307° West 431 496 36,000 -195 Level Minneapolis Center
Wed 05:38:07 PM 46.0819 -95.1372 307° West 426 490 35,600 -484 Descending Minneapolis Center
Wed 05:39:09 PM 46.1503 -95.2711 306° West 419 482 35,000 -1,065 Descending Minneapolis Center
Wed 05:40:11 PM 46.2247 -95.4194 306° West 420 483 33,400 -2,710 Descending Minneapolis Center
Wed 05:41:13 PM 46.3047 -95.5747 307° West 433 498 29,400 -3,919 Descending Minneapolis Center
Wed 05:42:15 PM 46.3747 -95.7158 306° West 434 499 25,300 -3,581 Descending Minneapolis Center
Wed 05:43:17 PM 46.4428 -95.8486 307° West 435 501 22,000 -3,484 Descending Minneapolis Center
Wed 05:44:19 PM 46.5194 -96.0008 306° West 405 466 18,100 -3,242 Descending Minneapolis Center
Wed 05:45:21 PM 46.5817 -96.1258 306° West 365 420 15,300 -2,855 Descending Minneapolis Center
Wed 05:46:23 PM 46.6350 -96.2342 306° West 345 397 12,200 -2,323 Descending Minneapolis Center
Wed 05:47:25 PM 46.6858 -96.3364 306° West 302 348 10,500 -1,805 Descending Minneapolis Center
Wed 05:48:26 PM 46.7267 -96.4222 305° West 252 290 8,500 -1,951 Descending Minneapolis Center
Wed 05:49:28 PM 46.7486 -96.5186 288° West 241 277 6,500 -1,597 Descending Minneapolis Center
Wed 05:50:30 PM 46.7697 -96.6119 288° West 233 268 5,200 -1,065 Descending Minneapolis Center
Wed 05:51:32 PM 46.7911 -96.7056 288° West 234 269 4,300 -871 Descending Minneapolis Center

Login

Don't have an account? Register now (free) for customized features, flight alerts, and more!